Back to Top

Language: 

My Weather Underground Personal Weather Station Historical Data with Graphs...

Delerius Weather Station Historical Data
Daily Summary for November 16, 2017 Units:  Metric    English   Both
« Previous Day
Next Day »
Daily Weekly Monthly Yearly Custom
  High: Low: Average:
Temperature: 10.9 °C 3.1 °C 8 °C
Dew Point: 9 °C 1.3 °C 5.5 °C
Humidity: 94 % 68 % 85 %
Wind Speed: 25.7 km/h 0 km/h 9.5 km/h
Wind Gust: 38.6 km/h - -
Wind:- - West
Pressure: 1028 hPa 1016.8 hPa -
Precipitation: 0 mm    
Historical Graphs
 
 
Tabular Data for November 16, 2017
Time Temperature Dew Point Pressure Wind Wind Speed Wind Gust Humidity Rainfall Rate (Hourly) solar Conditions
00:01 9 °C 7.9 °C 1020.2 hPa Calm   6.4 km/h 93 % 0 mm 0 W/m2
00:06 9 °C 7.9 °C 1019.9 hPa SSW 3.2 km/h 11.3 km/h 93 % 0 mm 0 W/m2
00:11 9 °C 8.1 °C 1019.9 hPa SW 6.4 km/h 9.7 km/h 94 % 0 mm 0 W/m2
00:16 9.1 °C 8.2 °C 1019.9 hPa SW 6.4 km/h 11.3 km/h 94 % 0 mm 0 W/m2
00:21 9.2 °C 8.3 °C 1019.5 hPa SW 8 km/h 11.3 km/h 94 % 0 mm 0 W/m2
00:26 9.3 °C 8.2 °C 1019.5 hPa SW 12.9 km/h 17.7 km/h 93 % 0 mm 0 W/m2
00:31 9.5 °C 8.4 °C 1019.2 hPa SW 11.3 km/h 14.5 km/h 93 % 0 mm 0 W/m2
00:36 9.6 °C 8.4 °C 1019.2 hPa SW 12.9 km/h 17.7 km/h 92 % 0 mm 0 W/m2
00:41 9.7 °C 8.3 °C 1019.2 hPa SW 11.3 km/h 19.3 km/h 91 % 0 mm 0 W/m2
00:46 9.7 °C 8.3 °C 1019.2 hPa SSW 8 km/h 11.3 km/h 91 % 0 mm 0 W/m2
00:51 9.7 °C 8.3 °C 1019.2 hPa SSW 11.3 km/h 14.5 km/h 91 % 0 mm 0 W/m2
00:56 9.6 °C 8.2 °C 1019.2 hPa SSW 9.7 km/h 12.9 km/h 91 % 0 mm 0 W/m2
01:01 9.5 °C 8.1 °C 1019.2 hPa SW 9.7 km/h 12.9 km/h 91 % 0 mm 0 W/m2
01:06 9.4 °C 8 °C 1018.8 hPa SSW 8 km/h 11.3 km/h 91 % 0 mm 0 W/m2
01:11 9.3 °C 7.9 °C 1018.8 hPa SSW 8 km/h 12.9 km/h 91 % 0 mm 0 W/m2
01:16 9.2 °C 7.8 °C 1018.8 hPa SW 8 km/h 14.5 km/h 91 % 0 mm 0 W/m2
01:21 9.1 °C 7.9 °C 1018.8 hPa SW 8 km/h 11.3 km/h 92 % 0 mm 0 W/m2
01:26 9 °C 7.8 °C 1018.8 hPa SW 9.7 km/h 14.5 km/h 92 % 0 mm 0 W/m2
01:31 9.1 °C 7.9 °C 1018.8 hPa SW 11.3 km/h 17.7 km/h 92 % 0 mm 0 W/m2
01:36 9.2 °C 7.9 °C 1018.8 hPa SSW 9.7 km/h 17.7 km/h 92 % 0 mm 0 W/m2
01:41 9.3 °C 8.2 °C 1018.8 hPa SW 8 km/h 12.9 km/h 93 % 0 mm 0 W/m2
01:46 9.4 °C 8.2 °C 1018.8 hPa SW 9.7 km/h 12.9 km/h 92 % 0 mm 0 W/m2
01:51 9.5 °C 8.3 °C 1018.5 hPa SSW 8 km/h 16.1 km/h 92 % 0 mm 0 W/m2
01:56 9.5 °C 8.3 °C 1018.5 hPa SSW 8 km/h 12.9 km/h 92 % 0 mm 0 W/m2
02:01 9.6 °C 8.4 °C 1018.5 hPa SSW 6.4 km/h 11.3 km/h 92 % 0 mm 0 W/m2
02:06 9.6 °C 8.4 °C 1018.8 hPa South 6.4 km/h 11.3 km/h 92 % 0 mm 0 W/m2
02:11 9.6 °C 8.4 °C 1018.8 hPa South 8 km/h 12.9 km/h 92 % 0 mm 0 W/m2
02:16 9.6 °C 8.4 °C 1018.5 hPa South 11.3 km/h 16.1 km/h 92 % 0 mm 0 W/m2
02:21 9.7 °C 8.4 °C 1018.5 hPa SSW 8 km/h 12.9 km/h 92 % 0 mm 0 W/m2
02:26 9.7 °C 8.4 °C 1018.5 hPa SSW 6.4 km/h 11.3 km/h 92 % 0 mm 0 W/m2
02:31 9.7 °C 8.4 °C 1018.5 hPa South 9.7 km/h 12.9 km/h 92 % 0 mm 0 W/m2
02:36 9.7 °C 8.4 °C 1018.5 hPa SSW 9.7 km/h 14.5 km/h 92 % 0 mm 0 W/m2
02:41 9.7 °C 8.4 °C 1018.5 hPa SSW 8 km/h 11.3 km/h 92 % 0 mm 0 W/m2
02:46 9.7 °C 8.3 °C 1018.5 hPa SW 4.8 km/h 9.7 km/h 91 % 0 mm 0 W/m2
02:51 9.7 °C 8.3 °C 1018.5 hPa SW 3.2 km/h 6.4 km/h 91 % 0 mm 0 W/m2
02:56 9.7 °C 8.3 °C 1018.5 hPa Calm     91 % 0 mm 0 W/m2
03:01 9.7 °C 8.3 °C 1018.2 hPa SW 1.6 km/h 4.8 km/h 91 % 0 mm 0 W/m2
03:06 9.7 °C 8.4 °C 1018.2 hPa WSW 6.4 km/h 9.7 km/h 92 % 0 mm 0 W/m2
03:08 9.7 °C 8.4 °C 1018.2 hPa WSW 6.4 km/h 9.7 km/h 92 % 0 mm 0 W/m2
03:13 9.7 °C 8.3 °C 1018.2 hPa WSW 3.2 km/h 8 km/h 91 % 0 mm 0 W/m2
03:21 9.8 °C 8.4 °C 1018.2 hPa West 3.2 km/h 11.3 km/h 91 % 0 mm 0 W/m2
03:26 9.8 °C 8.4 °C 1017.8 hPa Calm     91 % 0 mm 0 W/m2
03:28 9.8 °C 8.2 °C 1017.8 hPa Calm   1.6 km/h 90 % 0 mm 0 W/m2
03:33 9.8 °C 8.2 °C 1017.8 hPa Calm   1.6 km/h 90 % 0 mm 0 W/m2
03:38 9.7 °C 8.1 °C 1017.8 hPa West 4.8 km/h 9.7 km/h 90 % 0 mm 0 W/m2
03:43 9.6 °C 8.1 °C 1017.8 hPa SW 1.6 km/h 3.2 km/h 90 % 0 mm 0 W/m2
03:48 9.5 °C 7.9 °C 1017.8 hPa SW 6.4 km/h 11.3 km/h 90 % 0 mm 0 W/m2
03:53 9.5 °C 7.9 °C 1017.8 hPa SW 4.8 km/h 8 km/h 90 % 0 mm 0 W/m2
03:58 9.4 °C 7.7 °C 1017.5 hPa West 3.2 km/h 9.7 km/h 89 % 0 mm 0 W/m2
04:03 9.3 °C 7.6 °C 1017.5 hPa West 1.6 km/h 6.4 km/h 89 % 0 mm 0 W/m2
04:08 9.1 °C 7.4 °C 1017.5 hPa West 4.8 km/h 8 km/h 89 % 0 mm 0 W/m2
04:13 9 °C 7.3 °C 1017.5 hPa WSW 8 km/h 14.5 km/h 89 % 0 mm 0 W/m2
04:18 8.9 °C 7.2 °C 1017.5 hPa West 9.7 km/h 19.3 km/h 89 % 0 mm 0 W/m2
04:23 9 °C 7.1 °C 1017.8 hPa West 11.3 km/h 17.7 km/h 88 % 0 mm 0 W/m2
04:28 9.1 °C 7.2 °C 1017.8 hPa WSW 9.7 km/h 14.5 km/h 88 % 0 mm 0 W/m2
04:33 9.2 °C 7.2 °C 1017.5 hPa WSW 6.4 km/h 9.7 km/h 87 % 0 mm 0 W/m2
04:38 9.1 °C 7.1 °C 1017.5 hPa WSW 8 km/h 12.9 km/h 87 % 0 mm 0 W/m2
04:43 9.1 °C 7.1 °C 1017.5 hPa SW 9.7 km/h 14.5 km/h 87 % 0 mm 0 W/m2
04:48 9.2 °C 7.2 °C 1017.5 hPa SW 9.7 km/h 14.5 km/h 87 % 0 mm 0 W/m2
04:58 9.3 °C 7.1 °C 1017.5 hPa SW 4.8 km/h 11.3 km/h 86 % 0 mm 0 W/m2
05:03 9.2 °C 6.8 °C 1017.5 hPa SSW 3.2 km/h 9.7 km/h 85 % 0 mm 0 W/m2
05:08 9.1 °C 6.7 °C 1017.5 hPa SSW 1.6 km/h 3.2 km/h 85 % 0 mm 0 W/m2
05:13 9.1 °C 6.9 °C 1017.5 hPa SSE 4.8 km/h 11.3 km/h 86 % 0 mm 0 W/m2
05:18 9 °C 6.8 °C 1017.2 hPa SSE 6.4 km/h 9.7 km/h 86 % 0 mm 0 W/m2
05:23 9 °C 6.8 °C 1017.2 hPa SSE 3.2 km/h 6.4 km/h 86 % 0 mm 0 W/m2
05:28 8.9 °C 6.7 °C 1017.5 hPa SSE 6.4 km/h 11.3 km/h 86 % 0 mm 0 W/m2
05:33 8.9 °C 6.8 °C 1017.2 hPa SSW 6.4 km/h 9.7 km/h 87 % 0 mm 0 W/m2
05:39 8.8 °C 6.8 °C 1017.2 hPa WSW 3.2 km/h 9.7 km/h 87 % 0 mm 0 W/m2
05:44 8.8 °C 6.8 °C 1017.5 hPa WSW 6.4 km/h 12.9 km/h 87 % 0 mm 0 W/m2
05:49 8.7 °C 6.7 °C 1017.5 hPa West 8 km/h 12.9 km/h 87 % 0 mm 0 W/m2
05:54 8.7 °C 6.7 °C 1017.5 hPa West 4.8 km/h 8 km/h 87 % 0 mm 0 W/m2
05:59 8.7 °C 6.7 °C 1017.5 hPa WSW 1.6 km/h 6.4 km/h 87 % 0 mm 0 W/m2
06:04 8.5 °C 6.4 °C 1017.2 hPa SW 4.8 km/h 8 km/h 87 % 0 mm 0 W/m2
06:09 8.4 °C 6.3 °C 1017.2 hPa SW 4.8 km/h 9.7 km/h 87 % 0 mm 0 W/m2
06:14 8.3 °C 6.4 °C 1017.2 hPa WSW 9.7 km/h 14.5 km/h 88 % 0 mm 0 W/m2
06:19 8.4 °C 6.7 °C 1017.2 hPa SW 8 km/h 12.9 km/h 89 % 0 mm 0 W/m2
06:24 8.5 °C 6.8 °C 1017.2 hPa WSW 8 km/h 16.1 km/h 89 % 0 mm 0 W/m2
06:29 8.7 °C 7 °C 1017.2 hPa SW 9.7 km/h 14.5 km/h 89 % 0 mm 0 W/m2
06:34 8.8 °C 7.1 °C 1017.2 hPa SW 9.7 km/h 16.1 km/h 89 % 0 mm 0 W/m2
06:39 8.9 °C 7.2 °C 1017.2 hPa SW 8 km/h 12.9 km/h 89 % 0 mm 0 W/m2
06:44 8.9 °C 7 °C 1017.2 hPa SSW 9.7 km/h 16.1 km/h 88 % 0 mm 0 W/m2
06:49 9 °C 7.1 °C 1017.2 hPa SW 8 km/h 12.9 km/h 88 % 0 mm 0 W/m2
06:54 9.1 °C 7.2 °C 1017.2 hPa SW 4.8 km/h 9.7 km/h 88 % 0 mm 0 W/m2
06:59 9 °C 7.1 °C 1017.2 hPa SSW 3.2 km/h 11.3 km/h 88 % 0 mm 0 W/m2
07:04 8.9 °C 7 °C 1016.8 hPa SSW 3.2 km/h 8 km/h 88 % 0 mm 0 W/m2
07:09 8.9 °C 7.2 °C 1016.8 hPa South 6.4 km/h 11.3 km/h 89 % 0 mm 0 W/m2
07:14 8.9 °C 7.2 °C 1016.8 hPa South 8 km/h 11.3 km/h 89 % 0 mm 0 W/m2
07:19 8.9 °C 7.2 °C 1016.8 hPa SSE 4.8 km/h 12.9 km/h 89 % 0 mm 0 W/m2
07:24 9 °C 7.3 °C 1017.2 hPa SSW 8 km/h 12.9 km/h 89 % 0 mm 7 W/m2
07:29 9.1 °C 7.2 °C 1017.2 hPa SSW 4.8 km/h 9.7 km/h 88 % 0 mm 9 W/m2
07:34 9.1 °C 7.2 °C 1017.2 hPa SSW 4.8 km/h 9.7 km/h 88 % 0 mm 11 W/m2
07:39 9 °C 7.1 °C 1017.2 hPa South 8 km/h 14.5 km/h 88 % 0 mm 11 W/m2
07:44 9 °C 7.1 °C 1017.2 hPa SW 6.4 km/h 9.7 km/h 88 % 0 mm 12 W/m2
07:49 8.9 °C 7 °C 1017.2 hPa South 4.8 km/h 9.7 km/h 88 % 0 mm 14 W/m2
07:54 8.9 °C 7 °C 1017.2 hPa SW 8 km/h 11.3 km/h 88 % 0 mm 16 W/m2
07:59 8.9 °C 7.2 °C 1017.2 hPa SW 8 km/h 11.3 km/h 89 % 0 mm 18 W/m2
08:04 8.9 °C 7.2 °C 1017.2 hPa SW 9.7 km/h 16.1 km/h 89 % 0 mm 16 W/m2
08:09 9 °C 7.1 °C 1017.2 hPa SW 12.9 km/h 20.9 km/h 88 % 0 mm 21 W/m2
08:14 9.2 °C 7.3 °C 1017.2 hPa SW 16.1 km/h 22.5 km/h 88 % 0 mm 21 W/m2
08:19 9.6 °C 7.7 °C 1017.2 hPa WSW 16.1 km/h 30.6 km/h 88 % 0 mm 23 W/m2
08:24 9.8 °C 7.7 °C 1017.2 hPa WSW 17.7 km/h 25.7 km/h 87 % 0 mm 23 W/m2
08:27 9.9 °C 7.8 °C 1017.2 hPa WSW 19.3 km/h 30.6 km/h 87 % 0 mm 23 W/m2
08:32 10.1 °C 7.7 °C 1017.2 hPa WSW 19.3 km/h 33.8 km/h 85 % 0 mm 25 W/m2
08:37 10.3 °C 7.9 °C 1017.2 hPa WSW 25.7 km/h 37 km/h 85 % 0 mm 35 W/m2
08:42 10.4 °C 7.8 °C 1017.2 hPa WSW 22.5 km/h 35.4 km/h 84 % 0 mm 42 W/m2
08:47 10.5 °C 7.9 °C 1017.2 hPa WSW 17.7 km/h 30.6 km/h 84 % 0 mm 40 W/m2
08:52 10.5 °C 8.1 °C 1017.2 hPa WSW 22.5 km/h 32.2 km/h 85 % 0 mm 56 W/m2
08:57 10.5 °C 8.1 °C 1017.2 hPa WSW 17.7 km/h 29 km/h 85 % 0 mm 79 W/m2
09:02 10.6 °C 8.2 °C 1017.5 hPa WSW 22.5 km/h 35.4 km/h 85 % 0 mm 95 W/m2
09:07 10.8 °C 8.4 °C 1017.5 hPa WSW 22.5 km/h 33.8 km/h 85 % 0 mm 116 W/m2
09:12 10.8 °C 8.4 °C 1017.8 hPa WSW 16.1 km/h 22.5 km/h 85 % 0 mm 139 W/m2
09:17 10.9 °C 8.5 °C 1017.8 hPa WSW 19.3 km/h 29 km/h 85 % 0 mm 90 W/m2
09:22 10.9 °C 8.5 °C 1017.5 hPa SW 16.1 km/h 22.5 km/h 85 % 0 mm 63 W/m2
09:27 10.9 °C 8.5 °C 1017.8 hPa SW 16.1 km/h 25.7 km/h 85 % 0 mm 39 W/m2
09:32 10.9 °C 8.5 °C 1017.8 hPa SW 14.5 km/h 22.5 km/h 85 % 0 mm 35 W/m2
09:37 10.8 °C 8.4 °C 1017.5 hPa SW 12.9 km/h 20.9 km/h 85 % 0 mm 39 W/m2
09:42 10.8 °C 8.4 °C 1017.5 hPa SW 14.5 km/h 29 km/h 85 % 0 mm 47 W/m2
09:47 10.8 °C 8.4 °C 1017.5 hPa WSW 12.9 km/h 19.3 km/h 85 % 0 mm 185 W/m2
09:52 10.8 °C 8.6 °C 1017.5 hPa SW 11.3 km/h 17.7 km/h 86 % 0 mm 90 W/m2
09:57 10.8 °C 8.6 °C 1017.5 hPa SW 9.7 km/h 19.3 km/h 86 % 0 mm 74 W/m2
10:02 10.8 °C 8.6 °C 1017.5 hPa SW 12.9 km/h 20.9 km/h 86 % 0 mm 84 W/m2
10:07 10.8 °C 8.7 °C 1017.5 hPa WSW 11.3 km/h 20.9 km/h 87 % 0 mm 97 W/m2
10:12 10.8 °C 8.7 °C 1017.8 hPa WSW 12.9 km/h 19.3 km/h 87 % 0 mm 63 W/m2
10:17 10.9 °C 8.8 °C 1017.8 hPa WSW 14.5 km/h 24.1 km/h 87 % 0 mm 37 W/m2
10:22 10.9 °C 8.8 °C 1018.2 hPa WSW 17.7 km/h 29 km/h 87 % 0 mm 35 W/m2
10:27 10.9 °C 9 °C 1018.2 hPa WSW 16.1 km/h 32.2 km/h 88 % 0 mm 42 W/m2
10:32 10.9 °C 9 °C 1018.5 hPa WSW 17.7 km/h 30.6 km/h 88 % 0 mm 32 W/m2
10:37 10.9 °C 9 °C 1018.5 hPa WSW 14.5 km/h 24.1 km/h 88 % 0 mm 18 W/m2
10:42 10.7 °C 8.8 °C 1018.8 hPa WNW 22.5 km/h 37 km/h 88 % 0 mm 19 W/m2
10:47 10.3 °C 8.2 °C 1019.2 hPa WNW 16.1 km/h 24.1 km/h 87 % 0 mm 28 W/m2
10:52 10 °C 8.1 °C 1019.2 hPa WNW 20.9 km/h 35.4 km/h 88 % 0 mm 60 W/m2
10:57 9.6 °C 7.7 °C 1019.2 hPa WNW 19.3 km/h 29 km/h 88 % 0 mm 98 W/m2
11:02 9.4 °C 7.7 °C 1019.2 hPa WNW 14.5 km/h 22.5 km/h 89 % 0 mm 91 W/m2
11:07 9.3 °C 7.7 °C 1019.2 hPa WNW 12.9 km/h 22.5 km/h 90 % 0 mm 111 W/m2
11:12 9.3 °C 7.7 °C 1019.2 hPa WNW 16.1 km/h 29 km/h 90 % 0 mm 125 W/m2
11:17 9.3 °C 7.7 °C 1019.2 hPa WNW 14.5 km/h 20.9 km/h 90 % 0 mm 97 W/m2
11:22 9.2 °C 7.7 °C 1019.2 hPa WNW 17.7 km/h 25.7 km/h 90 % 0 mm 79 W/m2
11:27 9.2 °C 7.7 °C 1019.5 hPa WNW 16.1 km/h 25.7 km/h 90 % 0 mm 33 W/m2
11:32 9.2 °C 7.5 °C 1019.5 hPa WNW 14.5 km/h 32.2 km/h 89 % 0 mm 74 W/m2
11:37 9.1 °C 7.4 °C 1019.5 hPa WNW 17.7 km/h 30.6 km/h 89 % 0 mm 60 W/m2
11:42 9.1 °C 7.4 °C 1019.5 hPa WNW 14.5 km/h 20.9 km/h 89 % 0 mm 93 W/m2
11:47 9.1 °C 7.4 °C 1019.9 hPa WNW 20.9 km/h 33.8 km/h 89 % 0 mm 111 W/m2
11:52 9.2 °C 7.2 °C 1019.9 hPa WNW 17.7 km/h 29 km/h 87 % 0 mm 151 W/m2
11:57 9.3 °C 7.1 °C 1019.9 hPa WNW 19.3 km/h 32.2 km/h 86 % 0 mm 151 W/m2
12:02 9.5 °C 7.3 °C 1020.2 hPa WNW 17.7 km/h 29 km/h 86 % 0 mm 204 W/m2
12:07 9.7 °C 7.1 °C 1020.2 hPa WNW 17.7 km/h 30.6 km/h 84 % 0 mm 338 W/m2
12:12 9.9 °C 7.2 °C 1020.5 hPa WNW 16.1 km/h 25.7 km/h 83 % 0 mm 316 W/m2
12:17 10.1 °C 7.2 °C 1020.5 hPa WNW 16.1 km/h 30.6 km/h 82 % 0 mm 413 W/m2
12:22 10.3 °C 7 °C 1020.5 hPa WNW 17.7 km/h 25.7 km/h 80 % 0 mm 188 W/m2
12:27 10.3 °C 6.8 °C 1020.5 hPa WNW 16.1 km/h 25.7 km/h 79 % 0 mm 285 W/m2
12:32 10.4 °C 6.9 °C 1020.5 hPa WNW 16.1 km/h 25.7 km/h 79 % 0 mm 271 W/m2
12:37 10.4 °C 6.9 °C 1020.5 hPa WNW 14.5 km/h 24.1 km/h 79 % 0 mm 134 W/m2
12:42 10.3 °C 6.4 °C 1020.5 hPa WNW 17.7 km/h 30.6 km/h 77 % 0 mm 267 W/m2
12:47 10.5 °C 6.8 °C 1020.5 hPa WNW 19.3 km/h 32.2 km/h 78 % 0 mm 418 W/m2
12:52 10.8 °C 6.9 °C 1020.5 hPa WNW 12.9 km/h 22.5 km/h 77 % 0 mm 225 W/m2
12:57 10.9 °C 6.8 °C 1020.9 hPa WNW 19.3 km/h 38.6 km/h 76 % 0 mm 274 W/m2
13:07 10.4 °C 5.4 °C 1020.9 hPa NW 16.1 km/h 29 km/h 71 % 0 mm 102 W/m2
13:12 10.2 °C 4.9 °C 1020.9 hPa NW 12.9 km/h 24.1 km/h 70 % 0 mm 127 W/m2
13:17 10.1 °C 5.1 °C 1021.2 hPa WNW 11.3 km/h 20.9 km/h 71 % 0 mm 84 W/m2
13:23 10.1 °C 5.3 °C 1021.2 hPa WNW 6.4 km/h 16.1 km/h 72 % 0 mm 125 W/m2
13:28 10.1 °C 5.1 °C 1021.6 hPa WNW 12.9 km/h 25.7 km/h 71 % 0 mm 153 W/m2
13:33 10 °C 5 °C 1021.6 hPa NW 12.9 km/h 22.5 km/h 71 % 0 mm 193 W/m2
13:38 10.1 °C 5.3 °C 1021.6 hPa NW 9.7 km/h 16.1 km/h 72 % 0 mm 200 W/m2
13:43 10.2 °C 5.4 °C 1021.6 hPa NW 12.9 km/h 22.5 km/h 72 % 0 mm 213 W/m2
13:48 10.3 °C 5.4 °C 1021.6 hPa NW 14.5 km/h 19.3 km/h 72 % 0 mm 250 W/m2
13:53 10.4 °C 5.6 °C 1021.6 hPa WNW 16.1 km/h 20.9 km/h 72 % 0 mm 176 W/m2
13:58 10.4 °C 5.4 °C 1021.6 hPa WNW 12.9 km/h 22.5 km/h 71 % 0 mm 218 W/m2
14:03 10.4 °C 5.4 °C 1021.6 hPa WNW 14.5 km/h 19.3 km/h 71 % 0 mm 207 W/m2
14:08 10.5 °C 5.4 °C 1021.6 hPa WNW 12.9 km/h 19.3 km/h 71 % 0 mm 200 W/m2
14:13 10.4 °C 4.7 °C 1021.9 hPa NW 17.7 km/h 30.6 km/h 68 % 0 mm 185 W/m2
14:18 10.3 °C 4.7 °C 1021.9 hPa WNW 17.7 km/h 25.7 km/h 68 % 0 mm 160 W/m2
14:23 10.1 °C 4.4 °C 1021.6 hPa WNW 16.1 km/h 29 km/h 68 % 0 mm 158 W/m2
14:28 10.1 °C 4.7 °C 1021.6 hPa WNW 14.5 km/h 29 km/h 69 % 0 mm 35 W/m2
14:33 9.8 °C 4.4 °C 1021.9 hPa WNW 14.5 km/h 20.9 km/h 69 % 0 mm 40 W/m2
14:38 9.6 °C 4.4 °C 1021.9 hPa NW 12.9 km/h 17.7 km/h 70 % 0 mm 137 W/m2
14:43 9.6 °C 4.2 °C 1022.2 hPa WNW 12.9 km/h 19.3 km/h 69 % 0 mm 134 W/m2
14:48 9.4 °C 3.8 °C 1022.2 hPa NW 12.9 km/h 22.5 km/h 68 % 0 mm 123 W/m2
14:53 9.3 °C 3.7 °C 1022.6 hPa NW 14.5 km/h 22.5 km/h 68 % 0 mm 111 W/m2
14:58 9.2 °C 3.6 °C 1022.2 hPa WNW 16.1 km/h 22.5 km/h 68 % 0 mm 98 W/m2
15:03 9.1 °C 3.7 °C 1022.2 hPa WNW 17.7 km/h 25.7 km/h 69 % 0 mm 35 W/m2
15:08 9 °C 3.6 °C 1022.6 hPa WNW 14.5 km/h 22.5 km/h 69 % 0 mm 30 W/m2
15:13 8.9 °C 3.5 °C 1022.6 hPa NW 12.9 km/h 24.1 km/h 69 % 0 mm 28 W/m2
15:23 8.8 °C 3.4 °C 1022.6 hPa WNW 16.1 km/h 22.5 km/h 69 % 0 mm 25 W/m2
15:28 8.7 °C 3.3 °C 1022.6 hPa WNW 14.5 km/h 24.1 km/h 69 % 0 mm 23 W/m2
15:33 8.6 °C 3.2 °C 1022.6 hPa WNW 16.1 km/h 29 km/h 69 % 0 mm 19 W/m2
15:38 8.5 °C 2.9 °C 1022.9 hPa WNW 20.9 km/h 30.6 km/h 68 % 0 mm 18 W/m2
15:43 8.4 °C 3.1 °C 1023.2 hPa WNW 9.7 km/h 19.3 km/h 69 % 0 mm 16 W/m2
15:48 8.3 °C 2.9 °C 1023.2 hPa WNW 12.9 km/h 16.1 km/h 69 % 0 mm 14 W/m2
15:53 8.2 °C 3.1 °C 1023.2 hPa WNW 8 km/h 14.5 km/h 70 % 0 mm 11 W/m2
15:58 8.1 °C 2.9 °C 1023.2 hPa WNW 12.9 km/h 17.7 km/h 70 % 0 mm 9 W/m2
16:03 7.9 °C 2.9 °C 1023.6 hPa WNW 14.5 km/h 22.5 km/h 71 % 0 mm 7 W/m2
16:08 7.8 °C 2.9 °C 1023.6 hPa WNW 12.9 km/h 22.5 km/h 71 % 0 mm 5 W/m2
16:13 7.7 °C 2.9 °C 1023.6 hPa WNW 11.3 km/h 20.9 km/h 72 % 0 mm 0 W/m2
16:18 7.6 °C 2.9 °C 1023.9 hPa WNW 11.3 km/h 17.7 km/h 72 % 0 mm 0 W/m2
16:23 7.5 °C 2.9 °C 1023.9 hPa WNW 6.4 km/h 11.3 km/h 73 % 0 mm 0 W/m2
16:28 7.3 °C 2.8 °C 1023.9 hPa West 1.6 km/h 6.4 km/h 73 % 0 mm 0 W/m2
16:33 7.2 °C 2.7 °C 1024.3 hPa West 1.6 km/h 6.4 km/h 73 % 0 mm 0 W/m2
16:38 7.1 °C 2.8 °C 1024.3 hPa Calm   3.2 km/h 74 % 0 mm 0 W/m2
16:43 6.9 °C 2.8 °C 1024.3 hPa West 1.6 km/h 3.2 km/h 75 % 0 mm 0 W/m2
16:48 6.7 °C 2.6 °C 1024.3 hPa West 4.8 km/h 8 km/h 75 % 0 mm 0 W/m2
16:50 6.7 °C 2.8 °C 1024.3 hPa West 4.8 km/h 9.7 km/h 76 % 0 mm 0 W/m2
16:55 6.6 °C 2.7 °C 1024.3 hPa West 3.2 km/h 8 km/h 76 % 0 mm 0 W/m2
17:00 6.4 °C 2.7 °C 1024.6 hPa Calm   3.2 km/h 77 % 0 mm 0 W/m2
17:05 6.2 °C 2.4 °C 1024.6 hPa West 3.2 km/h 6.4 km/h 77 % 0 mm 0 W/m2
17:15 5.8 °C 2.3 °C 1024.3 hPa West 6.4 km/h 9.7 km/h 78 % 0 mm 0 W/m2
17:20 5.7 °C 2.3 °C 1024.3 hPa WNW 8 km/h 11.3 km/h 79 % 0 mm 0 W/m2
17:25 5.5 °C 2.2 °C 1024.3 hPa WNW 3.2 km/h 8 km/h 79 % 0 mm 0 W/m2
17:30 5.3 °C 2.1 °C 1024.6 hPa NW 1.6 km/h 8 km/h 80 % 0 mm 0 W/m2
17:35 5.2 °C 2.1 °C 1024.6 hPa NW 1.6 km/h 8 km/h 80 % 0 mm 0 W/m2
17:40 5.2 °C 2.2 °C 1024.9 hPa West 4.8 km/h 11.3 km/h 81 % 0 mm 0 W/m2
17:46 5.2 °C 2.2 °C 1024.6 hPa West 6.4 km/h 11.3 km/h 81 % 0 mm 0 W/m2
17:51 5.3 °C 2.3 °C 1024.6 hPa West 9.7 km/h 14.5 km/h 81 % 0 mm 0 W/m2
17:55 5.3 °C 2.3 °C 1024.6 hPa WNW 6.4 km/h 11.3 km/h 81 % 0 mm 0 W/m2
18:00 5.2 °C 2.2 °C 1024.9 hPa WNW 6.4 km/h 9.7 km/h 81 % 0 mm 0 W/m2
18:01 5.2 °C 2.2 °C 1024.9 hPa WNW 6.4 km/h 9.7 km/h 81 % 0 mm 0 W/m2
18:06 5.1 °C 2.3 °C 1024.9 hPa WNW 8 km/h 12.9 km/h 82 % 0 mm 0 W/m2
18:10 5 °C 2.2 °C 1024.9 hPa WNW 8 km/h 12.9 km/h 82 % 0 mm 0 W/m2
18:15 4.9 °C 2.3 °C 1024.9 hPa WNW 9.7 km/h 12.9 km/h 83 % 0 mm 0 W/m2
18:20 4.9 °C 2.4 °C 1024.9 hPa NW 8 km/h 12.9 km/h 84 % 0 mm 0 W/m2
18:25 4.9 °C 2.4 °C 1025.3 hPa NW 6.4 km/h 11.3 km/h 84 % 0 mm 0 W/m2
18:30 4.9 °C 2.6 °C 1025.3 hPa WNW 6.4 km/h 11.3 km/h 85 % 0 mm 0 W/m2
18:35 4.9 °C 2.6 °C 1025.3 hPa WNW 1.6 km/h 6.4 km/h 85 % 0 mm 0 W/m2
18:40 4.9 °C 2.4 °C 1025.3 hPa Calm   1.6 km/h 84 % 0 mm 0 W/m2
18:45 4.8 °C 2.5 °C 1025.3 hPa NW 8 km/h 11.3 km/h 85 % 0 mm 0 W/m2
18:50 4.8 °C 2.7 °C 1025.3 hPa NW 12.9 km/h 17.7 km/h 86 % 0 mm 0 W/m2
18:55 4.9 °C 2.8 °C 1025.3 hPa WNW 11.3 km/h 22.5 km/h 86 % 0 mm 0 W/m2
19:00 5.1 °C 2.8 °C 1025.6 hPa WNW 12.9 km/h 19.3 km/h 85 % 0 mm 0 W/m2
19:05 5.2 °C 2.9 °C 1025.6 hPa WNW 8 km/h 14.5 km/h 85 % 0 mm 0 W/m2
19:10 5.2 °C 2.7 °C 1026 hPa WNW 9.7 km/h 12.9 km/h 84 % 0 mm 0 W/m2
19:15 5.2 °C 2.7 °C 1026 hPa WNW 9.7 km/h 14.5 km/h 84 % 0 mm 0 W/m2
19:20 5.1 °C 2.6 °C 1025.6 hPa NW 11.3 km/h 17.7 km/h 84 % 0 mm 0 W/m2
19:25 5.1 °C 2.6 °C 1026 hPa WNW 12.9 km/h 17.7 km/h 84 % 0 mm 0 W/m2
19:30 5.2 °C 2.7 °C 1026 hPa WNW 9.7 km/h 14.5 km/h 84 % 0 mm 0 W/m2
19:35 5.2 °C 2.7 °C 1026 hPa WNW 11.3 km/h 17.7 km/h 84 % 0 mm 0 W/m2
19:40 5.2 °C 2.7 °C 1026 hPa WNW 11.3 km/h 16.1 km/h 84 % 0 mm 0 W/m2
19:45 5.2 °C 2.7 °C 1026 hPa WNW 9.7 km/h 17.7 km/h 84 % 0 mm 0 W/m2
19:50 5.1 °C 2.6 °C 1026 hPa WNW 11.3 km/h 17.7 km/h 84 % 0 mm 0 W/m2
19:55 5.1 °C 2.6 °C 1026 hPa WNW 11.3 km/h 20.9 km/h 84 % 0 mm 0 W/m2
20:00 5.1 °C 2.6 °C 1026.3 hPa WNW 6.4 km/h 14.5 km/h 84 % 0 mm 0 W/m2
20:05 5.1 °C 2.6 °C 1026.3 hPa Calm   3.2 km/h 84 % 0 mm 0 W/m2
20:10 4.9 °C 2.4 °C 1026.3 hPa Calm   1.6 km/h 84 % 0 mm 0 W/m2
20:15 4.8 °C 2.3 °C 1026.3 hPa WNW 6.4 km/h 11.3 km/h 84 % 0 mm 0 W/m2
20:20 4.8 °C 2.5 °C 1026.3 hPa WNW 4.8 km/h 8 km/h 85 % 0 mm 0 W/m2
20:25 4.7 °C 2.2 °C 1026.3 hPa Calm   3.2 km/h 84 % 0 mm 0 W/m2
20:30 4.5 °C 2.1 °C 1026.3 hPa WNW 1.6 km/h 4.8 km/h 84 % 0 mm 0 W/m2
20:35 4.3 °C 1.8 °C 1026.3 hPa Calm     84 % 0 mm 0 W/m2
20:40 4.2 °C 1.9 °C 1026.6 hPa Calm   1.6 km/h 85 % 0 mm 0 W/m2
20:45 4 °C 1.7 °C 1026.6 hPa Calm     85 % 0 mm 0 W/m2
20:50 3.8 °C 1.5 °C 1026.6 hPa Calm   4.8 km/h 85 % 0 mm 0 W/m2
20:55 3.7 °C 1.6 °C 1026.6 hPa WNW 4.8 km/h 8 km/h 86 % 0 mm 0 W/m2
21:00 3.6 °C 1.6 °C 1026.6 hPa WNW 1.6 km/h 3.2 km/h 87 % 0 mm 0 W/m2
21:05 3.5 °C 1.6 °C 1026.6 hPa WNW 1.6 km/h 4.8 km/h 87 % 0 mm 0 W/m2
21:10 3.4 °C 1.4 °C 1026.6 hPa Calm     87 % 0 mm 0 W/m2
21:15 3.3 °C 1.5 °C 1026.6 hPa WNW 1.6 km/h 3.2 km/h 88 % 0 mm 0 W/m2
21:20 3.2 °C 1.4 °C 1027 hPa WNW 4.8 km/h 6.4 km/h 88 % 0 mm 0 W/m2
21:25 3.2 °C 1.4 °C 1027 hPa WNW 4.8 km/h 8 km/h 88 % 0 mm 0 W/m2
21:30 3.1 °C 1.3 °C 1027 hPa WNW 6.4 km/h 8 km/h 88 % 0 mm 0 W/m2
21:35 3.1 °C 1.4 °C 1027 hPa WNW 8 km/h 11.3 km/h 89 % 0 mm 0 W/m2
21:40 3.1 °C 1.4 °C 1027 hPa WNW 6.4 km/h 9.7 km/h 89 % 0 mm 0 W/m2
21:42 3.1 °C 1.4 °C 1027 hPa WNW 6.4 km/h 8 km/h 89 % 0 mm 0 W/m2
21:47 3.2 °C 1.7 °C 1027 hPa WNW 8 km/h 9.7 km/h 90 % 0 mm 0 W/m2
21:52 3.3 °C 1.8 °C 1027 hPa NW 6.4 km/h 8 km/h 90 % 0 mm 0 W/m2
21:57 3.3 °C 1.8 °C 1027 hPa NW 8 km/h 12.9 km/h 90 % 0 mm 0 W/m2
22:02 3.4 °C 1.9 °C 1027.3 hPa WNW 8 km/h 12.9 km/h 90 % 0 mm 0 W/m2
22:07 3.6 °C 2.1 °C 1027.3 hPa WNW 9.7 km/h 14.5 km/h 90 % 0 mm 0 W/m2
22:12 3.7 °C 2.1 °C 1027.3 hPa WNW 9.7 km/h 12.9 km/h 89 % 0 mm 0 W/m2
22:17 3.7 °C 2.1 °C 1027.3 hPa NW 9.7 km/h 14.5 km/h 89 % 0 mm 0 W/m2
22:22 3.9 °C 2.3 °C 1027.3 hPa WNW 9.7 km/h 11.3 km/h 89 % 0 mm 0 W/m2
22:27 3.9 °C 2.3 °C 1027.3 hPa WNW 6.4 km/h 9.7 km/h 89 % 0 mm 0 W/m2
22:32 4 °C 2.3 °C 1027.3 hPa West 4.8 km/h 8 km/h 89 % 0 mm 0 W/m2
22:37 4 °C 2.2 °C 1027.3 hPa Calm     88 % 0 mm 0 W/m2
22:42 3.8 °C 1.8 °C 1027.7 hPa NW 8 km/h 12.9 km/h 87 % 0 mm 0 W/m2
22:47 3.8 °C 2 °C 1027.7 hPa WNW 9.7 km/h 11.3 km/h 88 % 0 mm 0 W/m2
22:52 3.9 °C 2.3 °C 1027.7 hPa West 8 km/h 12.9 km/h 89 % 0 mm 0 W/m2
22:57 4 °C 2.3 °C 1027.7 hPa WNW 9.7 km/h 12.9 km/h 89 % 0 mm 0 W/m2
23:02 4.1 °C 2.4 °C 1027.7 hPa NW 9.7 km/h 14.5 km/h 89 % 0 mm 0 W/m2
23:07 4.2 °C 2.6 °C 1028 hPa NW 8 km/h 12.9 km/h 89 % 0 mm 0 W/m2
23:12 4.3 °C 2.5 °C 1027.7 hPa NW 4.8 km/h 8 km/h 88 % 0 mm 0 W/m2
23:17 4.4 °C 2.7 °C 1028 hPa WNW 3.2 km/h 8 km/h 89 % 0 mm 0 W/m2
23:22 4.3 °C 2.5 °C 1027.7 hPa Calm   1.6 km/h 88 % 0 mm 0 W/m2
23:37 4.2 °C 2.4 °C 1028 hPa NW 4.8 km/h 8 km/h 88 % 0 mm 0 W/m2
23:42 4.4 °C 2.7 °C 1028 hPa NW 8 km/h 11.3 km/h 89 % 0 mm 0 W/m2
23:47 4.6 °C 3.1 °C 1028 hPa NW 6.4 km/h 9.7 km/h 90 % 0 mm 0 W/m2
23:57 4.8 °C 3.2 °C 1028 hPa WNW 4.8 km/h 8 km/h 89 % 0 mm 0 W/m2
Delerius-Weather
Compliments of Weather Underground - 2.25 mb

Data updates at regular intervals.